Aviation Digital Data Service (ADDS)

Output produced by METARs form (0242 UTC 05 July 2015)
found at http://aviationweather.gov/adds/metars/
 
KAOO 042335Z 0500/0524 VRB03KT P6SM SKC 
     FM050200 00000KT 3SM BR SCT040 
     FM050600 00000KT 1/2SM FG SCT002 
     FM051500 00000KT P6SM SCT250